• Join FlightAware (Why Join?)
  • Login
  • US Flag 
05:34AM EDT


 

Airport Tracker/Info


-or-


 

Live Flight TrackerFlight Track Log ✈ EGF4039 ✈ 05-May-2013 ✈ KALO - KORD

Flight Track Log - Related Links

Times and Time Zones

All times are in EDT time to prevent confusion due to time zone crossing. See the EGF4039 flight status page for this flight to view local times or setup timezone preferences in your user account.

Time Position Orientation Groundspeed Altitude Reporting Facility
EDT Latitude Longitude Course Direction KTS MPH feet Rate Location/Type
05:00PM 42.5869 -92.2861 97° East 243 280 6,400  Level Chicago Center
05:01PM 42.5756 -92.1883 99° East 255 293 9,200 1,980 Climbing Chicago Center
05:02PM 42.5633 -92.0742 98° East 286 329 10,500 1,320 Climbing Chicago Center
05:03PM 42.5461 -91.9181 98° East 333 383 12,000 1,500 Climbing Chicago Center
05:04PM 42.4833 -91.6832 90° East  Level FlightAware Approximate
05:04PM 42.5331 -91.7828 97° East 363 418 13,600  Level Chicago Center
05:05PM 42.4767 -91.5632 97° East  Level FlightAware Approximate
05:05PM 42.5367 -91.6444 88° East 375 432 15,000  Level Chicago Center
05:06PM 42.5400 -91.5053 88° East 378 435 16,200 1,200 Climbing Chicago Center
05:07PM 42.5433 -91.3325 88° East 388 447 17,500 1,140 Climbing Chicago Center
05:08PM 42.5456 -91.1878 89° East 390 449 18,600 1,020 Climbing Chicago Center
05:09PM 42.5481 -91.0369 89° East 403 464 19,700 1,020 Climbing Chicago Center
05:10PM 42.5486 -90.8831 90° East 412 474 20,700 600 Climbing Chicago Center
05:11PM 42.5511 -90.6944 89° East 421 484 21,000 120 Climbing Chicago Center
05:12PM 42.5533 -90.5358 89° East 426 490 21,000  Level Chicago Center
05:13PM 42.5542 -90.3792 90° East 421 484 21,000  Level Chicago Center
05:14PM 42.5453 -90.2219 94° East 421 484 21,000  Level Chicago Center
05:15PM 42.5297 -90.0650 98° East 424 488 21,000  Level Chicago Center
05:16PM 42.5108 -89.8742 98° East 422 486 21,000 -60 Level Chicago Center
05:17PM 42.4969 -89.7150 97° East 425 489 20,900 -780 Descending Chicago Center
05:18PM 42.4825 -89.5606 97° East 415 478 19,400 -1,500 Descending Chicago Center
05:19PM 42.4681 -89.4114 97° East 404 465 17,900 -1,560 Descending Chicago Center
05:20PM 42.4506 -89.2439 98° East 385 443 16,200 -1,560 Descending Chicago Center
05:21PM 42.4375 -89.1031 97° East 379 436 14,700 -1,500 Descending Chicago Center
05:22PM 42.4231 -88.9647 98° East 374 430 13,100 -1,620 Descending Chicago Center
05:23PM 42.4089 -88.8306 98° East 366 421 11,400 -1,260 Descending Chicago Center
05:24PM 42.3958 -88.7033 98° East 352 405 10,500 -1,020 Descending Chicago Center
05:25PM 42.3836 -88.5878 98° East 284 327 9,400 -780 Descending Chicago Center
05:26PM 42.3722 -88.4867 99° East 274 315 9,000 -240 Descending Chicago Center
05:27PM 42.3469 -88.3906 110° East 272 313 9,000  Level Chicago Center
05:29PM 42.2736 -88.3725 170° South 287 330 9,000  Level Chicago Center
05:30PM 42.1961 -88.3714 179° South 280 322 9,000 -900 Level Chicago Center
05:32PM 42.0000 -88.3667 179° South 270 311 6,100 -1,200 Descending Chicago TRACON
05:33PM 41.9731 -88.3403 144° Southeast 249 287 5,400 -660 Descending Chicago Center
05:34PM 41.9669 -88.2608 96° East 224 258 5,000 -300 Descending Chicago Center
05:35PM 41.9675 -88.1789 89° East 222 255 4,800 -240 Descending Chicago Center